sensor_id;sensor_type;location;lat;lon;timestamp;P1;durP1;ratioP1;P2;durP2;ratioP2
77246;SDS011;66279;42.820;23.374;2023-04-25T05:56:58;3.50;;;3.20;;
77246;SDS011;66279;42.820;23.374;2023-04-25T05:59:24;3.67;;;3.38;;
77246;SDS011;66279;42.820;23.374;2023-04-25T06:01:50;3.55;;;3.25;;
77246;SDS011;66279;42.820;23.374;2023-04-25T06:04:16;4.05;;;3.75;;
77246;SDS011;66279;42.820;23.374;2023-04-25T06:06:42;4.20;;;3.90;;
77246;SDS011;66279;42.820;23.374;2023-04-25T06:09:07;4.03;;;3.47;;
77246;SDS011;66279;42.820;23.374;2023-04-25T06:11:33;4.60;;;4.00;;
77246;SDS011;66279;42.820;23.374;2023-04-25T06:13:58;5.65;;;4.82;;
77246;SDS011;66279;42.820;23.374;2023-04-25T06:16:24;5.80;;;5.30;;
77246;SDS011;66279;42.820;23.374;2023-04-25T08:08:55;1.10;;;0.70;;
77246;SDS011;66279;42.820;23.374;2023-04-25T08:11:21;0.88;;;0.73;;
77246;SDS011;66279;42.820;23.374;2023-04-25T08:13:46;1.40;;;1.20;;
77246;SDS011;66279;42.820;23.374;2023-04-25T08:16:12;1.63;;;1.05;;
77246;SDS011;66279;42.820;23.374;2023-04-25T08:18:38;0.75;;;0.60;;
77246;SDS011;66279;42.820;23.374;2023-04-25T08:21:03;0.50;;;0.50;;
77246;SDS011;66279;42.820;23.374;2023-04-25T08:23:29;0.40;;;0.40;;
77246;SDS011;66279;42.820;23.374;2023-04-25T08:25:54;1.17;;;0.45;;
77246;SDS011;66279;42.820;23.374;2023-04-25T08:28:20;0.47;;;0.30;;
77246;SDS011;66279;42.820;23.374;2023-04-25T08:30:45;0.98;;;0.60;;
77246;SDS011;66279;42.820;23.374;2023-04-25T08:33:11;0.57;;;0.50;;
77246;SDS011;66279;42.820;23.374;2023-04-25T08:35:36;1.30;;;0.70;;
77246;SDS011;66279;42.820;23.374;2023-04-25T08:38:02;0.60;;;0.60;;
77246;SDS011;66279;42.820;23.374;2023-04-25T08:40:28;0.60;;;0.50;;
77246;SDS011;66279;42.820;23.374;2023-04-25T08:42:56;0.70;;;0.55;;
77246;SDS011;66279;42.820;23.374;2023-04-25T08:45:22;0.60;;;0.52;;
77246;SDS011;66279;42.820;23.374;2023-04-25T08:47:51;0.40;;;0.30;;
77246;SDS011;66279;42.820;23.374;2023-04-25T08:50:17;0.60;;;0.47;;
77246;SDS011;66279;42.820;23.374;2023-04-25T11:47:42;0.17;;;0.10;;
77246;SDS011;66279;42.820;23.374;2023-04-25T12:09:52;0.22;;;0.20;;
77246;SDS011;66279;42.820;23.374;2023-04-25T12:14:51;0.20;;;0.20;;
77246;SDS011;66279;42.820;23.374;2023-04-25T13:42:16;0.60;;;0.50;;
77246;SDS011;66279;42.820;23.374;2023-04-25T14:28:36;1.55;;;0.30;;
77246;SDS011;66279;42.820;23.374;2023-04-25T17:50:05;1.17;;;0.98;;
77246;SDS011;66279;42.820;23.374;2023-04-25T17:52:31;1.20;;;0.95;;
77246;SDS011;66279;42.820;23.374;2023-04-25T17:54:57;0.73;;;0.70;;
77246;SDS011;66279;42.820;23.374;2023-04-25T17:57:22;0.68;;;0.60;;
77246;SDS011;66279;42.820;23.374;2023-04-25T17:59:49;0.80;;;0.70;;
77246;SDS011;66279;42.820;23.374;2023-04-25T18:02:15;0.88;;;0.73;;
77246;SDS011;66279;42.820;23.374;2023-04-25T18:04:40;1.35;;;0.90;;
77246;SDS011;66279;42.820;23.374;2023-04-25T18:07:06;1.10;;;0.93;;
77246;SDS011;66279;42.820;23.374;2023-04-25T18:09:32;0.85;;;0.70;;
77246;SDS011;66279;42.820;23.374;2023-04-25T18:11:59;0.88;;;0.80;;
77246;SDS011;66279;42.820;23.374;2023-04-25T18:14:25;0.65;;;0.60;;
77246;SDS011;66279;42.820;23.374;2023-04-25T18:16:52;0.68;;;0.57;;
77246;SDS011;66279;42.820;23.374;2023-04-25T18:19:18;0.55;;;0.52;;
77246;SDS011;66279;42.820;23.374;2023-04-25T18:24:19;0.63;;;0.55;;
77246;SDS011;66279;42.820;23.374;2023-04-25T18:26:46;0.85;;;0.70;;
77246;SDS011;66279;42.820;23.374;2023-04-25T18:29:13;1.20;;;0.70;;
77246;SDS011;66279;42.820;23.374;2023-04-25T18:31:40;0.77;;;0.65;;
77246;SDS011;66279;42.820;23.374;2023-04-25T18:34:06;0.70;;;0.65;;
77246;SDS011;66279;42.820;23.374;2023-04-25T18:36:32;1.48;;;0.95;;
77246;SDS011;66279;42.820;23.374;2023-04-25T18:38:58;1.02;;;0.70;;
77246;SDS011;66279;42.820;23.374;2023-04-25T18:41:27;0.90;;;0.60;;
77246;SDS011;66279;42.820;23.374;2023-04-25T18:43:53;0.98;;;0.70;;
77246;SDS011;66279;42.820;23.374;2023-04-25T18:46:20;1.60;;;0.95;;
77246;SDS011;66279;42.820;23.374;2023-04-25T18:48:49;0.95;;;0.82;;
77246;SDS011;66279;42.820;23.374;2023-04-25T18:51:15;0.82;;;0.60;;
77246;SDS011;66279;42.820;23.374;2023-04-25T18:53:41;1.08;;;0.82;;
77246;SDS011;66279;42.820;23.374;2023-04-25T18:56:07;0.80;;;0.70;;
77246;SDS011;66279;42.820;23.374;2023-04-25T18:58:33;0.85;;;0.70;;
77246;SDS011;66279;42.820;23.374;2023-04-25T19:00:59;4.28;;;3.45;;
77246;SDS011;66279;42.820;23.374;2023-04-25T19:03:25;2.88;;;2.35;;
77246;SDS011;66279;42.820;23.374;2023-04-25T19:05:54;3.92;;;3.00;;
77246;SDS011;66279;42.820;23.374;2023-04-25T19:08:20;6.55;;;4.03;;
77246;SDS011;66279;42.820;23.374;2023-04-25T19:10:47;3.40;;;2.67;;
77246;SDS011;66279;42.820;23.374;2023-04-25T19:13:14;2.17;;;1.00;;
77246;SDS011;66279;42.820;23.374;2023-04-25T19:18:14;1.40;;;1.10;;
77246;SDS011;66279;42.820;23.374;2023-04-25T19:20:40;1.42;;;0.98;;
77246;SDS011;66279;42.820;23.374;2023-04-25T19:23:05;1.55;;;1.38;;
77246;SDS011;66279;42.820;23.374;2023-04-25T19:27:58;1.10;;;0.98;;
77246;SDS011;66279;42.820;23.374;2023-04-25T19:30:24;1.20;;;0.85;;
77246;SDS011;66279;42.820;23.374;2023-04-25T19:32:51;1.30;;;1.20;;
77246;SDS011;66279;42.820;23.374;2023-04-25T19:35:16;0.85;;;0.73;;
77246;SDS011;66279;42.820;23.374;2023-04-25T19:37:42;0.98;;;0.77;;
77246;SDS011;66279;42.820;23.374;2023-04-25T19:40:10;1.10;;;1.00;;
77246;SDS011;66279;42.820;23.374;2023-04-25T19:42:36;1.38;;;0.88;;
77246;SDS011;66279;42.820;23.374;2023-04-25T19:45:02;1.33;;;1.23;;
77246;SDS011;66279;42.820;23.374;2023-04-25T19:47:28;1.48;;;1.23;;
77246;SDS011;66279;42.820;23.374;2023-04-25T19:49:53;1.30;;;0.93;;
77246;SDS011;66279;42.820;23.374;2023-04-25T19:52:19;1.20;;;1.08;;
77246;SDS011;66279;42.820;23.374;2023-04-25T19:54:44;1.80;;;1.00;;
77246;SDS011;66279;42.820;23.374;2023-04-25T19:57:10;2.10;;;1.35;;
77246;SDS011;66279;42.820;23.374;2023-04-25T19:59:36;0.95;;;0.77;;
77246;SDS011;66279;42.820;23.374;2023-04-25T20:02:02;1.48;;;0.60;;
77246;SDS011;66279;42.820;23.374;2023-04-25T20:04:30;0.70;;;0.60;;
77246;SDS011;66279;42.820;23.374;2023-04-25T20:06:56;1.45;;;0.90;;
77246;SDS011;66279;42.820;23.374;2023-04-25T20:09:22;1.98;;;0.60;;
77246;SDS011;66279;42.820;23.374;2023-04-25T20:11:47;2.85;;;0.85;;
77246;SDS011;66279;42.820;23.374;2023-04-25T20:14:13;1.35;;;0.70;;
77246;SDS011;66279;42.820;23.374;2023-04-25T20:16:39;0.57;;;0.55;;
77246;SDS011;66279;42.820;23.374;2023-04-25T20:19:05;1.00;;;0.70;;
77246;SDS011;66279;42.820;23.374;2023-04-25T20:21:31;1.00;;;0.70;;
77246;SDS011;66279;42.820;23.374;2023-04-25T20:24:01;0.68;;;0.50;;
77246;SDS011;66279;42.820;23.374;2023-04-25T20:26:27;0.93;;;0.73;;
77246;SDS011;66279;42.820;23.374;2023-04-25T20:28:53;0.70;;;0.60;;
77246;SDS011;66279;42.820;23.374;2023-04-25T20:31:18;0.57;;;0.50;;
77246;SDS011;66279;42.820;23.374;2023-04-25T20:33:45;0.63;;;0.63;;
77246;SDS011;66279;42.820;23.374;2023-04-25T20:36:11;0.70;;;0.50;;
77246;SDS011;66279;42.820;23.374;2023-04-25T20:38:37;1.15;;;0.55;;
77246;SDS011;66279;42.820;23.374;2023-04-25T20:41:02;2.15;;;0.60;;
77246;SDS011;66279;42.820;23.374;2023-04-25T20:43:27;1.05;;;0.80;;
77246;SDS011;66279;42.820;23.374;2023-04-25T20:45:54;1.05;;;0.80;;
77246;SDS011;66279;42.820;23.374;2023-04-25T20:48:19;1.10;;;0.90;;
77246;SDS011;66279;42.820;23.374;2023-04-25T20:50:45;0.80;;;0.70;;
77246;SDS011;66279;42.820;23.374;2023-04-25T20:53:11;0.55;;;0.45;;
77246;SDS011;66279;42.820;23.374;2023-04-25T20:55:36;1.25;;;0.73;;
77246;SDS011;66279;42.820;23.374;2023-04-25T20:58:02;0.93;;;0.70;;
77246;SDS011;66279;42.820;23.374;2023-04-25T21:00:28;0.98;;;0.80;;
77246;SDS011;66279;42.820;23.374;2023-04-25T21:02:54;1.60;;;0.70;;
77246;SDS011;66279;42.820;23.374;2023-04-25T21:05:21;1.10;;;0.82;;
77246;SDS011;66279;42.820;23.374;2023-04-25T21:07:50;0.70;;;0.63;;
77246;SDS011;66279;42.820;23.374;2023-04-25T21:10:19;0.68;;;0.63;;
77246;SDS011;66279;42.820;23.374;2023-04-25T21:12:44;0.90;;;0.80;;
